Harper Tavern, Pennsylvania
Current Conditions -  °F | °C
As of 3:06 AM on Thursday 23 Oct 2014 (Local Time) from KMUI Reporting Station
Overcast Overcast  
Wind Chill: 52°   Ceiling: 2600
Heat Index: 52°   Visibility: 10mi
Dew Point: 46°   Wind: 16mph
Humidity: 82%   Direction: 350°N
Pressure: 29.86"   Gusts: 25mph
Location:  40.3819°N, 76.5718°W
Report Text: KMUI 230706Z AUTO 35014G22KT 320V040 10SM BKN026 OVC075 11/08 A2986 RMK AO2 CIG 026V080 BKN V FEW $
Loading
Personal Weather Stations






























Interactive Weather Map
Tropical Storm Tracking
New forecast layout! Learn more

10-Day Weather Forecast

Advertisements
Track Severe Weather on mobile